Paige, TX (78659)

1:23 AM CDT on July 24, 2016 (GMT -0500)
Manheim, Texas | | Change Station

Elev 453 ft 30.26 °N, 97.04 °W | Updated 19 seconds ago

Clear
Clear
81.3 °F
Feels Like 87 °F
N
7.6
Wind Variable Wind from SSW
Gusts 9.8 mph

Today
High -- | Low -- °F
--% Chance of Precip.
Yesterday
High -- | Low -- °F
Precip. -- in
Pressure 30.00 in
Visibility 10.0 miles
Clouds Clear
Heat Index 87 °F
Dew Point 75 °F
Humidity 80%
Rainfall 0.00 in
Snow Depth Not available.
6:42 AM 8:26 PM
Waning Gibbous, 79% visible
METAR KGYB 240615Z AUTO 19005KT 10SM CLR 27/23 A3000 RMK AO2 T02700227
Pressure 30.00 in
Visibility 10.0 miles
Clouds Clear
Heat Index 87 °F
Dew Point 75 °F
Humidity 80%
Rainfall 0.00 in
Snow Depth Not available.
6:42 AM 8:26 PM
Waning Gibbous, 79% visible
METAR KGYB 240615Z AUTO 19005KT 10SM CLR 27/23 A3000 RMK AO2 T02700227

10-Day Weather Forecast

Almanac

Astronomy

Jul. 24, 2016 Rise Set
Actual Time
Civil Twilight
Nautical Twilight
Astronomical Twilight
Moon
Length of Visible Light
Length of Day
Tomorrow will be .
, % of the Moon is Illuminated

Today's Extremes

State Highs State Lows

Community

WunderPhotos

Upload Photos

1,927,038 photos uploaded!

WunderBlog® & News

Nearby

Air Quality

  Air Quality AQ Index Pollutant
Not available.

Snow Depth

Station Depth Elevation

Earthquake Activity

City Distance Mag. Time & Date
Minimum magnitude displayed is 2.5.

Coastal Water Temperatures

Place Temperature

Stations

Nearby Weather Stations

Station Location Temp. Windchill Dew Point Humidity Wind Precip. Elev Updated Type
                   

Watches & Warnings

There are currently no watches in effect.